createdAt,value
2019-03-21T00:02:11.887Z,84.00
2019-03-21T00:04:41.584Z,84.20
2019-03-21T00:07:10.383Z,84.20
2019-03-21T00:09:39.186Z,84.20
2019-03-21T00:12:10.939Z,84.20
2019-03-21T00:14:53.101Z,84.20
2019-03-21T00:17:26.434Z,84.50
2019-03-21T00:19:55.281Z,84.70
2019-03-21T00:22:25.195Z,85.30
2019-03-21T00:24:53.994Z,85.80
2019-03-21T00:27:22.799Z,86.00
2019-03-21T00:29:51.598Z,86.20
2019-03-21T00:32:20.548Z,86.40
2019-03-21T00:34:49.338Z,86.70
2019-03-21T00:37:18.153Z,86.70
2019-03-21T00:39:46.958Z,87.00
2019-03-21T00:42:15.766Z,86.90
2019-03-21T00:44:44.565Z,87.10
2019-03-21T00:47:13.358Z,87.50
2019-03-21T00:49:42.215Z,88.00
2019-03-21T00:52:11.017Z,87.90
2019-03-21T00:54:39.831Z,88.20
2019-03-21T00:57:08.646Z,87.90
2019-03-21T00:59:37.432Z,87.60
2019-03-21T01:02:06.266Z,88.20
2019-03-21T01:04:35.061Z,88.00
2019-03-21T01:07:05.344Z,88.10
2019-03-21T01:09:34.154Z,88.20
2019-03-21T01:12:02.947Z,88.10
2019-03-21T01:14:31.808Z,87.90
2019-03-21T01:17:01.422Z,88.10
2019-03-21T01:19:33.238Z,89.20
2019-03-21T01:22:01.642Z,88.30
2019-03-21T01:24:30.439Z,88.50
2019-03-21T01:26:59.294Z,89.00
2019-03-21T01:29:28.084Z,88.70
2019-03-21T01:31:56.879Z,88.60
2019-03-21T01:34:25.688Z,88.60
2019-03-21T01:36:54.499Z,88.60
2019-03-21T01:39:23.335Z,88.50
2019-03-21T01:41:52.130Z,88.80
2019-03-21T01:44:21.934Z,88.60
2019-03-21T01:46:50.746Z,88.70
2019-03-21T01:49:19.542Z,88.80
2019-03-21T01:51:48.382Z,89.00
2019-03-21T01:54:17.179Z,88.80
2019-03-21T01:56:45.978Z,88.80
2019-03-21T01:59:14.777Z,88.80
2019-03-21T02:01:44.529Z,88.40
2019-03-21T02:04:13.474Z,88.30
2019-03-21T02:06:42.270Z,88.60
2019-03-21T02:09:11.110Z,88.60
2019-03-21T02:11:39.906Z,88.80
2019-03-21T02:14:08.708Z,89.20
2019-03-21T02:16:37.503Z,89.10
2019-03-21T02:19:06.308Z,89.00
2019-03-21T02:21:35.147Z,88.90
2019-03-21T02:24:04.536Z,88.70
2019-03-21T02:26:33.337Z,88.60
2019-03-21T02:29:02.155Z,88.80
2019-03-21T02:31:30.954Z,89.00
2019-03-21T02:34:00.041Z,89.30
2019-03-21T02:36:28.840Z,89.30
2019-03-21T02:38:57.689Z,89.40
2019-03-21T02:41:26.483Z,89.30
2019-03-21T02:43:55.293Z,89.50
2019-03-21T02:46:24.098Z,89.40
2019-03-21T02:48:52.902Z,89.50
2019-03-21T02:51:21.747Z,89.50
2019-03-21T02:53:50.549Z,89.60
2019-03-21T02:56:20.958Z,90.00
2019-03-21T02:58:49.746Z,90.00
2019-03-21T03:01:18.922Z,90.10
2019-03-21T03:03:47.755Z,90.00
2019-03-21T03:06:16.546Z,89.80
2019-03-21T03:08:45.351Z,89.60
2019-03-21T03:11:15.672Z,90.00
2019-03-21T03:13:46.265Z,90.10
2019-03-21T03:16:15.115Z,90.20
2019-03-21T03:18:43.923Z,90.00
2019-03-21T03:21:12.728Z,89.90
2019-03-21T03:23:41.537Z,90.10
2019-03-21T03:26:10.331Z,90.10
2019-03-21T03:28:40.560Z,90.20
2019-03-21T03:31:09.362Z,90.20
2019-03-21T03:33:38.181Z,90.20
2019-03-21T03:36:06.977Z,90.00
2019-03-21T03:38:35.779Z,89.50
2019-03-21T03:41:06.373Z,89.50
2019-03-21T03:43:35.174Z,89.90
2019-03-21T03:46:04.019Z,89.80
2019-03-21T03:48:32.800Z,89.60
2019-03-21T03:51:01.701Z,88.40
2019-03-21T03:53:30.616Z,87.70
2019-03-21T03:55:59.404Z,87.10
2019-03-21T03:58:32.442Z,86.40
2019-03-21T04:01:01.244Z,83.10
2019-03-21T04:03:30.058Z,82.40
2019-03-21T04:05:58.842Z,82.90
2019-03-21T04:08:27.650Z,83.00
2019-03-21T04:10:57.390Z,83.60
2019-03-21T04:13:26.292Z,83.20
2019-03-21T04:15:55.087Z,83.90
2019-03-21T04:18:24.930Z,84.10
2019-03-21T04:20:55.195Z,84.30
2019-03-21T04:23:23.983Z,85.30
2019-03-21T04:25:57.377Z,85.50
2019-03-21T04:28:26.181Z,83.40
2019-03-21T04:30:54.972Z,82.10
2019-03-21T04:33:23.918Z,81.90
2019-03-21T04:35:52.704Z,80.00
2019-03-21T04:38:21.605Z,79.90
2019-03-21T04:40:50.436Z,78.40
2019-03-21T04:43:19.235Z,79.10
2019-03-21T04:45:48.023Z,79.90
2019-03-21T04:48:16.871Z,77.40
2019-03-21T04:50:45.691Z,77.40
2019-03-21T04:53:14.487Z,77.40
2019-03-21T04:55:43.339Z,77.90
2019-03-21T04:58:12.132Z,76.80
2019-03-21T05:00:48.492Z,76.00
2019-03-21T05:03:18.283Z,76.60
2019-03-21T05:05:47.091Z,77.40
2019-03-21T05:08:15.913Z,75.20
2019-03-21T05:10:44.702Z,75.20
2019-03-21T05:13:13.543Z,74.80
2019-03-21T05:15:50.711Z,73.20
2019-03-21T05:18:37.554Z,72.80
2019-03-21T05:21:10.647Z,71.80
2019-03-21T05:23:39.497Z,72.10
2019-03-21T05:26:08.290Z,72.50
2019-03-21T05:28:37.108Z,72.70
2019-03-21T05:31:16.622Z,71.90
2019-03-21T05:33:45.441Z,72.00
2019-03-21T05:36:14.241Z,72.50
2019-03-21T05:38:44.043Z,72.40
2019-03-21T05:41:12.855Z,71.00
2019-03-21T05:43:43.118Z,70.90
2019-03-21T05:46:11.967Z,70.30
2019-03-21T05:48:40.754Z,69.80
2019-03-21T05:51:09.573Z,69.70
2019-03-21T05:53:38.406Z,69.50
2019-03-21T05:56:07.612Z,69.90
2019-03-21T05:58:36.409Z,70.60
2019-03-21T06:01:06.680Z,70.00
2019-03-21T06:03:48.180Z,69.50
2019-03-21T06:06:33.479Z,69.50
2019-03-21T06:09:02.314Z,69.80
2019-03-21T06:11:31.105Z,69.20
2019-03-21T06:13:59.915Z,69.10
2019-03-21T06:16:37.197Z,69.50
2019-03-21T06:19:06.417Z,70.20
2019-03-21T06:21:36.728Z,70.10
2019-03-21T06:24:13.303Z,70.10
2019-03-21T06:26:43.568Z,69.50
2019-03-21T06:29:12.702Z,70.00
2019-03-21T06:31:41.514Z,69.60
2019-03-21T06:34:10.304Z,69.20
2019-03-21T06:36:39.133Z,69.10
2019-03-21T06:39:08.527Z,69.00
2019-03-21T06:41:37.425Z,69.60
2019-03-21T06:44:06.238Z,70.00
2019-03-21T06:46:36.051Z,70.00
2019-03-21T06:49:04.903Z,68.70
2019-03-21T06:51:33.702Z,68.80
2019-03-21T06:54:02.533Z,68.90
2019-03-21T06:56:31.379Z,68.80
2019-03-21T06:59:00.180Z,68.90
2019-03-21T07:01:28.984Z,68.90
2019-03-21T07:04:06.610Z,68.80
2019-03-21T07:06:28.223Z,68.30
2019-03-21T07:08:57.033Z,67.60
2019-03-21T07:11:25.818Z,67.90
2019-03-21T07:13:54.667Z,67.40
2019-03-21T07:16:23.471Z,67.80
2019-03-21T07:18:52.280Z,67.90
2019-03-21T07:21:21.080Z,68.00
2019-03-21T07:23:49.878Z,68.10
2019-03-21T07:26:20.149Z,68.50
2019-03-21T07:28:48.939Z,69.20
2019-03-21T07:31:17.738Z,69.10
2019-03-21T07:33:46.550Z,68.30
2019-03-21T07:36:15.346Z,67.40
2019-03-21T07:38:44.174Z,67.00
2019-03-21T07:41:12.963Z,66.60
2019-03-21T07:43:41.781Z,67.10
2019-03-21T07:46:10.586Z,66.90
2019-03-21T07:48:39.396Z,65.50
2019-03-21T07:51:08.231Z,66.00
2019-03-21T07:53:37.027Z,66.70
2019-03-21T07:56:05.989Z,66.70
2019-03-21T07:58:34.815Z,66.00
2019-03-21T08:01:03.611Z,66.20
2019-03-21T08:03:32.579Z,66.30
2019-03-21T08:06:01.382Z,66.10
2019-03-21T08:08:30.188Z,65.30
2019-03-21T08:10:58.995Z,66.10
2019-03-21T08:13:27.784Z,65.00
2019-03-21T08:15:56.619Z,65.30
2019-03-21T08:18:26.413Z,65.70
2019-03-21T08:20:57.411Z,66.00
2019-03-21T08:23:25.916Z,65.70
2019-03-21T08:25:54.792Z,66.40
2019-03-21T08:28:23.632Z,66.60
2019-03-21T08:30:59.868Z,66.00
2019-03-21T08:33:28.634Z,66.20
2019-03-21T08:35:57.426Z,65.40
2019-03-21T08:38:26.235Z,65.30
2019-03-21T08:40:55.030Z,65.10
2019-03-21T08:43:23.842Z,64.20
2019-03-21T08:45:52.649Z,64.50
2019-03-21T08:48:21.442Z,64.70
2019-03-21T08:50:50.282Z,65.10
2019-03-21T08:53:19.071Z,65.70
2019-03-21T08:55:47.946Z,65.30
2019-03-21T08:58:16.710Z,65.10
2019-03-21T09:00:45.502Z,65.20
2019-03-21T09:03:14.364Z,65.70
2019-03-21T09:05:43.152Z,65.60
2019-03-21T09:08:12.962Z,65.20
2019-03-21T09:10:41.763Z,65.40
2019-03-21T09:13:10.560Z,66.00
2019-03-21T09:15:40.398Z,65.70
2019-03-21T09:18:09.195Z,65.60
2019-03-21T09:20:37.992Z,65.70
2019-03-21T09:23:06.787Z,65.60
2019-03-21T09:25:35.578Z,65.70
2019-03-21T09:28:05.199Z,66.60
2019-03-21T09:30:33.998Z,66.00
2019-03-21T09:33:02.789Z,66.70
2019-03-21T09:35:32.011Z,66.60
2019-03-21T09:38:00.807Z,66.40
2019-03-21T09:40:29.605Z,66.00
2019-03-21T09:42:58.442Z,66.00
2019-03-21T09:45:28.099Z,66.30
2019-03-21T09:47:57.875Z,65.90
2019-03-21T09:50:29.404Z,66.00
2019-03-21T09:52:59.283Z,65.60
2019-03-21T09:55:29.066Z,66.40
2019-03-21T09:57:58.782Z,66.10
2019-03-21T10:00:34.160Z,66.00
2019-03-21T10:03:04.540Z,66.40
2019-03-21T10:05:34.298Z,66.10
2019-03-21T10:08:04.885Z,67.10
2019-03-21T10:10:35.423Z,66.20
2019-03-21T10:13:05.799Z,66.20
2019-03-21T10:15:35.542Z,66.50
2019-03-21T10:18:05.386Z,67.20
2019-03-21T10:20:35.117Z,66.70
2019-03-21T10:23:04.855Z,67.50
2019-03-21T10:25:34.731Z,67.60
2019-03-21T10:28:04.464Z,67.60
2019-03-21T10:30:39.166Z,67.30
2019-03-21T10:33:12.785Z,67.90
2019-03-21T10:35:42.662Z,68.20
2019-03-21T10:38:12.396Z,68.70
2019-03-21T10:40:42.187Z,69.20
2019-03-21T10:43:11.091Z,69.30
2019-03-21T10:45:40.716Z,69.40
2019-03-21T10:48:10.472Z,70.20
2019-03-21T10:50:40.106Z,70.00
2019-03-21T10:53:10.171Z,70.10
2019-03-21T10:55:40.261Z,70.20
2019-03-21T10:58:10.005Z,71.10
2019-03-21T11:00:39.758Z,70.40
2019-03-21T11:03:09.506Z,72.50
2019-03-21T11:05:38.391Z,71.80
2019-03-21T11:08:07.231Z,71.70
2019-03-21T11:10:36.034Z,72.00
2019-03-21T11:13:05.112Z,71.30
2019-03-21T11:15:34.123Z,71.70
2019-03-21T11:18:03.282Z,71.70
2019-03-21T11:20:32.918Z,72.30
2019-03-21T11:23:01.823Z,72.90
2019-03-21T11:25:31.821Z,72.30
2019-03-21T11:28:00.629Z,72.30
2019-03-21T11:30:35.694Z,73.50
2019-03-21T11:33:05.003Z,73.50
2019-03-21T11:35:34.111Z,73.40
2019-03-21T11:38:03.027Z,73.50
2019-03-21T11:40:32.979Z,73.20
2019-03-21T11:43:02.684Z,73.20
2019-03-21T11:45:31.513Z,73.50
2019-03-21T11:48:00.343Z,73.80
2019-03-21T11:50:29.155Z,73.80
2019-03-21T11:52:57.955Z,73.80
2019-03-21T11:55:27.723Z,73.70
2019-03-21T11:57:57.481Z,73.60
2019-03-21T12:00:27.213Z,75.00
2019-03-21T12:02:56.956Z,73.10
2019-03-21T12:05:26.735Z,72.90
2019-03-21T12:07:56.501Z,72.50
2019-03-21T12:10:26.238Z,72.90
2019-03-21T12:12:56.066Z,72.10
2019-03-21T12:15:25.805Z,71.80
2019-03-21T12:17:55.541Z,71.20
2019-03-21T12:20:30.366Z,72.60
2019-03-21T12:23:00.103Z,72.50
2019-03-21T12:25:30.939Z,71.40
2019-03-21T12:28:01.679Z,70.10
2019-03-21T12:30:36.406Z,71.00
2019-03-21T12:33:06.775Z,70.70
2019-03-21T12:35:36.619Z,70.90
2019-03-21T12:38:06.795Z,69.70
2019-03-21T12:40:37.803Z,70.10
2019-03-21T12:43:07.605Z,71.30
2019-03-21T12:45:37.623Z,71.00
2019-03-21T12:48:07.409Z,70.40
2019-03-21T12:50:37.142Z,70.70
2019-03-21T12:53:06.930Z,71.10
2019-03-21T12:55:36.656Z,71.60
2019-03-21T12:58:06.390Z,72.30
2019-03-21T13:00:39.132Z,72.80
2019-03-21T13:03:09.119Z,73.50
2019-03-21T13:05:39.867Z,73.00
2019-03-21T13:08:09.644Z,73.10
2019-03-21T13:10:39.875Z,73.80
2019-03-21T13:13:09.679Z,74.30
2019-03-21T13:15:39.406Z,73.50
2019-03-21T13:18:09.401Z,73.10
2019-03-21T13:20:39.141Z,73.60
2019-03-21T13:23:08.921Z,73.90
2019-03-21T13:25:39.658Z,73.60
2019-03-21T13:28:09.435Z,74.20
2019-03-21T13:30:39.468Z,74.00
2019-03-21T13:33:09.439Z,74.30
2019-03-21T13:35:39.190Z,73.90
2019-03-21T13:38:08.976Z,74.30
2019-03-21T13:40:38.742Z,74.30
2019-03-21T13:43:11.124Z,74.00
2019-03-21T13:45:40.228Z,73.50
2019-03-21T13:48:09.974Z,73.90
2019-03-21T13:50:39.716Z,72.50
2019-03-21T13:53:18.184Z,71.60
2019-03-21T13:55:40.824Z,70.40
2019-03-21T13:58:10.604Z,70.40
2019-03-21T14:00:41.172Z,70.60
2019-03-21T14:03:11.122Z,69.50
2019-03-21T14:05:40.866Z,69.10
2019-03-21T14:08:10.607Z,68.60
2019-03-21T14:10:40.367Z,68.60
2019-03-21T14:13:10.096Z,69.90
2019-03-21T14:15:39.892Z,68.90
2019-03-21T14:18:09.618Z,68.60
2019-03-21T14:20:39.358Z,68.30
2019-03-21T14:23:16.917Z,68.40
2019-03-21T14:25:40.513Z,68.70
2019-03-21T14:28:10.263Z,69.50
2019-03-21T14:30:40.035Z,69.90
2019-03-21T14:33:09.848Z,71.10
2019-03-21T14:35:39.608Z,70.70
2019-03-21T14:38:09.360Z,69.80
2019-03-21T14:40:39.094Z,69.90
2019-03-21T14:43:08.895Z,69.20
2019-03-21T14:45:38.630Z,69.60
2019-03-21T14:48:08.399Z,70.10
2019-03-21T14:50:38.138Z,70.60
2019-03-21T14:53:07.886Z,70.30
2019-03-21T14:55:47.077Z,70.00
2019-03-21T14:58:09.030Z,68.90
2019-03-21T15:00:38.914Z,67.70
2019-03-21T15:03:10.213Z,67.40
2019-03-21T15:05:40.079Z,66.00
2019-03-21T15:08:09.843Z,65.50
2019-03-21T15:10:39.582Z,65.20
2019-03-21T15:13:09.623Z,65.50
2019-03-21T15:15:39.359Z,63.90
2019-03-21T15:18:10.158Z,61.40
2019-03-21T15:20:39.920Z,57.40
2019-03-21T15:23:10.703Z,55.20
2019-03-21T15:25:40.565Z,54.00
2019-03-21T15:28:10.918Z,54.30
2019-03-21T15:30:40.672Z,55.60
2019-03-21T15:33:10.410Z,56.30
2019-03-21T15:35:40.157Z,57.30
2019-03-21T15:38:09.902Z,57.40
2019-03-21T15:40:39.955Z,58.20
2019-03-21T15:43:09.690Z,58.50
2019-03-21T15:45:39.464Z,59.10
2019-03-21T15:48:09.191Z,59.60
2019-03-21T15:50:38.934Z,59.80
2019-03-21T15:53:08.824Z,60.40
2019-03-21T15:55:38.836Z,61.20
2019-03-21T15:58:08.577Z,61.90
2019-03-21T16:00:44.738Z,62.20
2019-03-21T16:03:14.714Z,62.30
2019-03-21T16:05:44.460Z,62.10
2019-03-21T16:08:14.249Z,62.20
2019-03-21T16:10:43.982Z,62.40
2019-03-21T16:13:13.727Z,62.70
2019-03-21T16:15:43.487Z,63.00
2019-03-21T16:18:13.273Z,63.00
2019-03-21T16:20:43.044Z,63.10
2019-03-21T16:23:12.829Z,63.20
2019-03-21T16:25:42.575Z,63.30
2019-03-21T16:28:12.330Z,63.70
2019-03-21T16:30:42.067Z,64.10
2019-03-21T16:33:12.044Z,64.60
2019-03-21T16:35:41.807Z,65.40
2019-03-21T16:38:11.550Z,66.40
2019-03-21T16:40:41.303Z,66.90
2019-03-21T16:43:11.046Z,67.80
2019-03-21T16:45:41.780Z,68.60
2019-03-21T16:48:11.570Z,69.10
2019-03-21T16:50:41.315Z,70.00
2019-03-21T16:53:11.106Z,71.60
2019-03-21T16:55:40.850Z,73.00
2019-03-21T16:58:10.738Z,74.20
2019-03-21T17:00:40.442Z,75.10
2019-03-21T17:03:10.232Z,77.20
2019-03-21T17:05:39.983Z,77.10
2019-03-21T17:08:11.600Z,78.00
2019-03-21T17:10:41.218Z,78.90
2019-03-21T17:13:11.004Z,79.70
2019-03-21T17:15:40.761Z,79.90
2019-03-21T17:18:10.517Z,80.00
2019-03-21T17:20:40.298Z,80.80
2019-03-21T17:23:10.016Z,81.60
2019-03-21T17:25:39.771Z,82.50
2019-03-21T17:28:09.518Z,83.10
2019-03-21T17:30:39.264Z,83.60
2019-03-21T17:33:09.075Z,84.10
2019-03-21T17:35:38.898Z,84.30
2019-03-21T17:38:08.643Z,84.60
2019-03-21T17:40:38.394Z,85.10
2019-03-21T17:43:08.122Z,85.40
2019-03-21T17:45:38.906Z,85.50
2019-03-21T17:48:08.644Z,86.20
2019-03-21T17:50:38.383Z,86.40
2019-03-21T17:53:08.114Z,86.70
2019-03-21T17:55:37.860Z,86.80
2019-03-21T17:58:07.643Z,87.40
2019-03-21T18:00:37.390Z,87.70
2019-03-21T18:03:07.169Z,87.90
2019-03-21T18:05:36.899Z,88.30
2019-03-21T18:08:06.635Z,88.60
2019-03-21T18:10:37.498Z,88.70
2019-03-21T18:13:07.269Z,89.30
2019-03-21T18:15:37.311Z,89.40
2019-03-21T18:18:07.091Z,89.70
2019-03-21T18:20:36.871Z,89.10
2019-03-21T18:23:06.584Z,88.70
2019-03-21T18:25:36.326Z,88.50
2019-03-21T18:28:08.530Z,89.20
2019-03-21T18:30:37.496Z,90.00
2019-03-21T18:33:07.243Z,90.00
2019-03-21T18:35:38.498Z,90.00
2019-03-21T18:38:08.603Z,89.90
2019-03-21T18:40:38.379Z,89.90
2019-03-21T18:43:08.132Z,89.90
2019-03-21T18:45:37.894Z,89.90
2019-03-21T18:48:07.653Z,90.00
2019-03-21T18:50:37.393Z,90.10
2019-03-21T18:53:07.125Z,90.20
2019-03-21T18:55:36.862Z,90.30
2019-03-21T18:58:06.663Z,90.50
2019-03-21T19:00:36.384Z,90.90
2019-03-21T19:03:06.172Z,90.60
2019-03-21T19:05:35.911Z,90.60
2019-03-21T19:08:05.647Z,90.70
2019-03-21T19:10:35.612Z,90.60
2019-03-21T19:13:05.345Z,90.60
2019-03-21T19:15:35.118Z,90.50
2019-03-21T19:18:04.853Z,90.60
2019-03-21T19:20:34.603Z,90.60
2019-03-21T19:23:04.336Z,90.60
2019-03-21T19:25:34.297Z,90.70
2019-03-21T19:28:04.028Z,90.80
2019-03-21T19:30:33.772Z,91.10
2019-03-21T19:33:06.920Z,91.40
2019-03-21T19:35:37.189Z,91.60
2019-03-21T19:38:06.931Z,91.50
2019-03-21T19:40:38.674Z,91.60
2019-03-21T19:43:08.053Z,91.60
2019-03-21T19:45:37.805Z,91.60
2019-03-21T19:48:07.578Z,91.70
2019-03-21T19:50:38.414Z,91.60
2019-03-21T19:53:08.215Z,91.50
2019-03-21T19:55:37.955Z,91.40
2019-03-21T19:58:07.696Z,91.10
2019-03-21T20:00:37.439Z,91.10
2019-03-21T20:03:07.200Z,91.10
2019-03-21T20:05:36.973Z,90.40
2019-03-21T20:08:05.863Z,90.60
2019-03-21T20:10:35.524Z,91.40
2019-03-21T20:13:05.354Z,91.40
2019-03-21T20:15:35.087Z,90.90
2019-03-21T20:18:04.962Z,91.30
2019-03-21T20:20:34.699Z,91.80
2019-03-21T20:23:04.457Z,92.00
2019-03-21T20:25:42.903Z,92.00
2019-03-21T20:28:05.855Z,92.10
2019-03-21T20:30:35.663Z,91.50
2019-03-21T20:33:05.400Z,91.50
2019-03-21T20:35:35.184Z,91.60
2019-03-21T20:38:04.923Z,91.70
2019-03-21T20:40:34.663Z,91.80
2019-03-21T20:43:04.407Z,91.90
2019-03-21T20:45:35.136Z,92.10
2019-03-21T20:48:04.929Z,92.10
2019-03-21T20:50:34.681Z,92.20
2019-03-21T20:53:05.560Z,92.20
2019-03-21T20:55:35.320Z,92.30
2019-03-21T20:58:05.095Z,92.40
2019-03-21T21:00:34.824Z,92.50
2019-03-21T21:03:04.764Z,92.50
2019-03-21T21:05:34.553Z,92.50
2019-03-21T21:08:04.305Z,92.40
2019-03-21T21:10:34.079Z,92.50
2019-03-21T21:13:03.806Z,92.40
2019-03-21T21:15:33.557Z,92.40
2019-03-21T21:18:03.297Z,92.30
2019-03-21T21:20:33.028Z,92.30
2019-03-21T21:23:02.826Z,92.30
2019-03-21T21:25:32.553Z,92.50
2019-03-21T21:28:02.311Z,92.20
2019-03-21T21:30:32.047Z,92.10
2019-03-21T21:33:01.789Z,92.00
2019-03-21T21:35:31.585Z,92.30
2019-03-21T21:38:01.319Z,92.00
2019-03-21T21:40:32.839Z,92.00
2019-03-21T21:43:02.531Z,92.10
2019-03-21T21:45:32.314Z,92.30
2019-03-21T21:48:02.059Z,91.90
2019-03-21T21:50:31.840Z,91.90
2019-03-21T21:53:01.577Z,91.80
2019-03-21T21:55:31.327Z,92.00
2019-03-21T21:58:01.171Z,92.20
2019-03-21T22:00:30.910Z,92.00
2019-03-21T22:03:00.703Z,93.10
2019-03-21T22:05:30.437Z,92.70
2019-03-21T22:08:00.203Z,93.10
2019-03-21T22:10:30.938Z,93.50
2019-03-21T22:13:00.706Z,93.00
2019-03-21T22:15:30.459Z,92.30
2019-03-21T22:18:00.272Z,92.00
2019-03-21T22:20:30.010Z,91.50
2019-03-21T22:22:59.745Z,92.00
2019-03-21T22:25:29.494Z,92.20
2019-03-21T22:27:59.259Z,91.90
2019-03-21T22:30:28.159Z,92.20
2019-03-21T22:32:56.965Z,92.70
2019-03-21T22:35:25.771Z,93.60
2019-03-21T22:37:54.573Z,92.90
2019-03-21T22:40:25.720Z,92.20
2019-03-21T22:42:55.778Z,92.40
2019-03-21T22:45:25.554Z,91.90
2019-03-21T22:47:55.297Z,92.30
2019-03-21T22:50:25.066Z,92.60
2019-03-21T22:52:54.800Z,92.30
2019-03-21T22:55:24.554Z,92.30
2019-03-21T22:57:54.287Z,92.40
2019-03-21T23:00:25.653Z,92.80
2019-03-21T23:02:57.346Z,92.30
2019-03-21T23:05:27.111Z,92.30
2019-03-21T23:07:56.855Z,92.20
2019-03-21T23:10:26.630Z,92.20
2019-03-21T23:12:56.366Z,92.50
2019-03-21T23:15:26.094Z,92.70
2019-03-21T23:17:55.874Z,92.50
2019-03-21T23:20:25.614Z,92.70
2019-03-21T23:22:55.352Z,93.30
2019-03-21T23:25:25.091Z,93.80
2019-03-21T23:27:54.967Z,94.20
2019-03-21T23:30:24.733Z,93.90
2019-03-21T23:32:54.814Z,93.10
2019-03-21T23:35:25.007Z,92.50
2019-03-21T23:37:54.735Z,92.30
2019-03-21T23:40:24.922Z,92.20
2019-03-21T23:42:54.629Z,92.40
2019-03-21T23:45:24.362Z,92.00
2019-03-21T23:47:54.090Z,92.00
2019-03-21T23:50:24.067Z,92.20
2019-03-21T23:52:54.894Z,92.00
2019-03-21T23:55:24.619Z,92.40
2019-03-21T23:57:54.407Z,92.60
